<?xml version="1.0" encoding="UTF-8" standalone="no" ?>
<gpx xmlns="http://www.topografix.com/GPX/1/1" xmlns:xsi="http://www.w3.org/2001/XMLSchema-instance" xsi:schemaLocation="http://www.topografix.com/GPX/1/1 http://www.topografix.com/GPX/1/1/gpx.xsd" version="1.1" creator="VisuGPX - https://www.visugpx.com">
  <metadata>
    <name>3 batailles Boucle  N°1</name>
  </metadata>
  <trk>
    <name><![CDATA[3 batailles Boucle  N°1]]></name>
    <extensions>
      <line xmlns="http://www.topografix.com/GPX/gpx_style/0/2">
        <color>0000FF</color>
        <width>4</width>
      </line>
    </extensions>
    <trkseg>
      <trkpt lat="46.71406" lon="0.45838">
        <ele>68.3</ele>
        <time>2022-07-11T16:54:28Z</time>
      </trkpt>
      <trkpt lat="46.71415" lon="0.45834">
        <ele>67.2</ele>
      </trkpt>
      <trkpt lat="46.71622" lon="0.46035">
        <ele>64.6</ele>
      </trkpt>
      <trkpt lat="46.7176" lon="0.46139">
        <ele>63</ele>
        <time>2022-07-11T17:06:13Z</time>
      </trkpt>
      <trkpt lat="46.71904" lon="0.463">
        <ele>69.3</ele>
        <time>2022-07-11T17:08:10Z</time>
      </trkpt>
      <trkpt lat="46.71936" lon="0.46354">
        <ele>70.5</ele>
        <time>2022-07-11T17:09:14Z</time>
      </trkpt>
      <trkpt lat="46.71995" lon="0.46536">
        <ele>76.3</ele>
      </trkpt>
      <trkpt lat="46.72046" lon="0.46723">
        <ele>83</ele>
        <time>2022-07-11T17:12:56Z</time>
      </trkpt>
      <trkpt lat="46.72098" lon="0.4693">
        <ele>91.7</ele>
        <time>2022-07-11T17:14:56Z</time>
      </trkpt>
      <trkpt lat="46.72143" lon="0.47052">
        <ele>92</ele>
      </trkpt>
      <trkpt lat="46.72187" lon="0.47141">
        <ele>92</ele>
        <time>2022-07-11T17:17:12Z</time>
      </trkpt>
      <trkpt lat="46.72293" lon="0.47283">
        <ele>90</ele>
        <time>2022-07-11T17:19:09Z</time>
      </trkpt>
      <trkpt lat="46.72337" lon="0.47366">
        <ele>92</ele>
      </trkpt>
      <trkpt lat="46.72426" lon="0.47564">
        <ele>90.9</ele>
      </trkpt>
      <trkpt lat="46.72475" lon="0.4762">
        <ele>90.2</ele>
        <time>2022-07-11T17:22:33Z</time>
      </trkpt>
      <trkpt lat="46.72872" lon="0.47925">
        <ele>89</ele>
        <time>2022-07-11T17:29:06Z</time>
      </trkpt>
      <trkpt lat="46.73041" lon="0.48077">
        <ele>87.5</ele>
      </trkpt>
      <trkpt lat="46.73125" lon="0.48167">
        <ele>88</ele>
        <time>2022-07-11T17:33:08Z</time>
      </trkpt>
      <trkpt lat="46.73235" lon="0.48406">
        <ele>68.9</ele>
      </trkpt>
      <trkpt lat="46.73343" lon="0.48649">
        <ele>68</ele>
      </trkpt>
      <trkpt lat="46.73355" lon="0.48665">
        <ele>74</ele>
        <time>2022-07-11T17:38:38Z</time>
      </trkpt>
      <trkpt lat="46.73424" lon="0.48696">
        <ele>75.8</ele>
      </trkpt>
      <trkpt lat="46.73416" lon="0.48795">
        <ele>83.4</ele>
        <time>2022-07-11T17:51:02Z</time>
      </trkpt>
      <trkpt lat="46.73486" lon="0.48842">
        <ele>85.8</ele>
      </trkpt>
      <trkpt lat="46.73561" lon="0.48939">
        <ele>86.6</ele>
      </trkpt>
      <trkpt lat="46.73555" lon="0.48848">
        <ele>85</ele>
      </trkpt>
      <trkpt lat="46.73558" lon="0.48778">
        <ele>83.9</ele>
      </trkpt>
      <trkpt lat="46.73618" lon="0.48653">
        <ele>82.7</ele>
      </trkpt>
      <trkpt lat="46.73549" lon="0.48745">
        <ele>84.4</ele>
      </trkpt>
      <trkpt lat="46.73507" lon="0.48651">
        <ele>84.6</ele>
      </trkpt>
      <trkpt lat="46.73513" lon="0.48585">
        <ele>80.9</ele>
      </trkpt>
      <trkpt lat="46.73541" lon="0.48542">
        <ele>80.9</ele>
      </trkpt>
      <trkpt lat="46.73601" lon="0.48563">
        <ele>81.6</ele>
      </trkpt>
      <trkpt lat="46.73639" lon="0.48625">
        <ele>81.5</ele>
      </trkpt>
      <trkpt lat="46.73645" lon="0.4872">
        <ele>81.6</ele>
      </trkpt>
      <trkpt lat="46.73592" lon="0.48868">
        <ele>83.7</ele>
      </trkpt>
      <trkpt lat="46.73554" lon="0.48949">
        <ele>87</ele>
      </trkpt>
      <trkpt lat="46.73341" lon="0.49501">
        <ele>82</ele>
        <time>2022-07-11T17:58:34Z</time>
      </trkpt>
      <trkpt lat="46.73273" lon="0.49633">
        <ele>88</ele>
        <time>2022-07-11T18:00:05Z</time>
      </trkpt>
      <trkpt lat="46.73221" lon="0.49811">
        <ele>98</ele>
        <time>2022-07-11T18:01:51Z</time>
      </trkpt>
      <trkpt lat="46.73172" lon="0.49946">
        <ele>108</ele>
        <time>2022-07-11T18:03:15Z</time>
      </trkpt>
      <trkpt lat="46.73289" lon="0.4999">
        <ele>113</ele>
        <time>2022-07-11T18:04:51Z</time>
      </trkpt>
      <trkpt lat="46.73408" lon="0.50052">
        <ele>109</ele>
        <time>2022-07-11T18:06:33Z</time>
      </trkpt>
      <trkpt lat="46.73525" lon="0.50164">
        <ele>104</ele>
        <time>2022-07-11T18:08:25Z</time>
      </trkpt>
      <trkpt lat="46.73458" lon="0.50386">
        <ele>106</ele>
        <time>2022-07-11T18:10:45Z</time>
      </trkpt>
      <trkpt lat="46.7348" lon="0.50583">
        <ele>107</ele>
        <time>2022-07-11T18:12:27Z</time>
      </trkpt>
      <trkpt lat="46.73453" lon="0.50621">
        <ele>109</ele>
        <time>2022-07-11T18:12:57Z</time>
      </trkpt>
      <trkpt lat="46.73407" lon="0.50856">
        <ele>115</ele>
      </trkpt>
      <trkpt lat="46.73555" lon="0.50931">
        <ele>110</ele>
      </trkpt>
      <trkpt lat="46.73532" lon="0.51022">
        <ele>108.2</ele>
      </trkpt>
      <trkpt lat="46.73471" lon="0.51151">
        <ele>104.2</ele>
      </trkpt>
      <trkpt lat="46.73386" lon="0.51232">
        <ele>103.3</ele>
      </trkpt>
      <trkpt lat="46.73424" lon="0.51296">
        <ele>100.1</ele>
      </trkpt>
      <trkpt lat="46.73361" lon="0.51359">
        <ele>100.1</ele>
      </trkpt>
      <trkpt lat="46.73367" lon="0.51419">
        <ele>101.2</ele>
      </trkpt>
      <trkpt lat="46.73342" lon="0.51472">
        <ele>104.9</ele>
      </trkpt>
      <trkpt lat="46.73307" lon="0.51524">
        <ele>107.8</ele>
      </trkpt>
      <trkpt lat="46.73303" lon="0.51641">
        <ele>111.8</ele>
      </trkpt>
      <trkpt lat="46.73287" lon="0.51699">
        <ele>110.5</ele>
      </trkpt>
      <trkpt lat="46.73291" lon="0.5181">
        <ele>102.9</ele>
      </trkpt>
      <trkpt lat="46.73285" lon="0.51859">
        <ele>102.5</ele>
        <time>2022-07-11T18:13:33Z</time>
      </trkpt>
      <trkpt lat="46.73222" lon="0.51861">
        <ele>104</ele>
      </trkpt>
      <trkpt lat="46.73211" lon="0.51887">
        <ele>104.4</ele>
      </trkpt>
      <trkpt lat="46.7321" lon="0.5206">
        <ele>102.3</ele>
      </trkpt>
      <trkpt lat="46.73133" lon="0.52039">
        <ele>104.6</ele>
      </trkpt>
      <trkpt lat="46.73084" lon="0.51975">
        <ele>108.2</ele>
      </trkpt>
      <trkpt lat="46.73033" lon="0.5176">
        <ele>109</ele>
      </trkpt>
      <trkpt lat="46.72988" lon="0.51408">
        <ele>114</ele>
      </trkpt>
      <trkpt lat="46.72946" lon="0.51342">
        <ele>118.6</ele>
      </trkpt>
      <trkpt lat="46.72914" lon="0.51241">
        <ele>120.1</ele>
      </trkpt>
      <trkpt lat="46.72928" lon="0.5122">
        <ele>119.7</ele>
      </trkpt>
      <trkpt lat="46.729" lon="0.51012">
        <ele>123.6</ele>
        <time>2022-07-11T18:17:03Z</time>
      </trkpt>
      <trkpt lat="46.73046" lon="0.50978">
        <ele>120.4</ele>
        <time>2022-07-11T18:18:39Z</time>
      </trkpt>
      <trkpt lat="46.73063" lon="0.50893">
        <ele>121</ele>
      </trkpt>
      <trkpt lat="46.73091" lon="0.50712">
        <ele>119</ele>
      </trkpt>
      <trkpt lat="46.73125" lon="0.50578">
        <ele>115</ele>
        <time>2022-07-11T18:20:14Z</time>
      </trkpt>
      <trkpt lat="46.72995" lon="0.50625">
        <ele>119.5</ele>
        <time>2022-07-11T18:22:02Z</time>
      </trkpt>
      <trkpt lat="46.72889" lon="0.50431">
        <ele>114</ele>
      </trkpt>
      <trkpt lat="46.72777" lon="0.50243">
        <ele>98</ele>
        <time>2022-07-11T18:26:32Z</time>
      </trkpt>
      <trkpt lat="46.73136" lon="0.49911">
        <ele>104</ele>
        <time>2022-07-11T18:32:12Z</time>
      </trkpt>
      <trkpt lat="46.73015" lon="0.49695">
        <ele>100</ele>
        <time>2022-07-11T18:34:45Z</time>
      </trkpt>
      <trkpt lat="46.72899" lon="0.49673">
        <ele>98</ele>
        <time>2022-07-11T18:36:19Z</time>
      </trkpt>
      <trkpt lat="46.72777" lon="0.49576">
        <ele>96</ele>
        <time>2022-07-11T18:38:10Z</time>
      </trkpt>
      <trkpt lat="46.72765" lon="0.49432">
        <ele>81.7</ele>
      </trkpt>
      <trkpt lat="46.72778" lon="0.49293">
        <ele>87</ele>
        <time>2022-07-11T18:40:45Z</time>
      </trkpt>
      <trkpt lat="46.72773" lon="0.49093">
        <ele>84</ele>
        <time>2022-07-11T18:42:35Z</time>
      </trkpt>
      <trkpt lat="46.72732" lon="0.4901">
        <ele>82</ele>
        <time>2022-07-11T18:43:31Z</time>
      </trkpt>
      <trkpt lat="46.72635" lon="0.49061">
        <ele>79</ele>
        <time>2022-07-11T18:44:54Z</time>
      </trkpt>
      <trkpt lat="46.72507" lon="0.48922">
        <ele>85</ele>
        <time>2022-07-11T18:47:01Z</time>
      </trkpt>
      <trkpt lat="46.72428" lon="0.48809">
        <ele>95</ele>
        <time>2022-07-11T18:48:30Z</time>
      </trkpt>
      <trkpt lat="46.72451" lon="0.48472">
        <ele>93</ele>
        <time>2022-07-11T18:51:36Z</time>
      </trkpt>
      <trkpt lat="46.72462" lon="0.48445">
        <ele>93</ele>
        <time>2022-07-11T18:51:53Z</time>
      </trkpt>
      <trkpt lat="46.72445" lon="0.48347">
        <ele>96</ele>
        <time>2022-07-11T18:52:49Z</time>
      </trkpt>
      <trkpt lat="46.72397" lon="0.48218">
        <ele>103</ele>
        <time>2022-07-11T18:54:09Z</time>
      </trkpt>
      <trkpt lat="46.72313" lon="0.4809">
        <ele>106</ele>
        <time>2022-07-11T18:55:47Z</time>
      </trkpt>
      <trkpt lat="46.72237" lon="0.47991">
        <ele>106</ele>
        <time>2022-07-11T18:57:08Z</time>
      </trkpt>
      <trkpt lat="46.71985" lon="0.47765">
        <ele>105</ele>
        <time>2022-07-11T19:01:05Z</time>
      </trkpt>
      <trkpt lat="46.71936" lon="0.47664">
        <ele>101</ele>
        <time>2022-07-11T19:02:13Z</time>
      </trkpt>
      <trkpt lat="46.71856" lon="0.47632">
        <ele>100</ele>
        <time>2022-07-11T19:03:19Z</time>
      </trkpt>
      <trkpt lat="46.71784" lon="0.47646">
        <ele>97</ele>
        <time>2022-07-11T19:04:17Z</time>
      </trkpt>
      <trkpt lat="46.71719" lon="0.47664">
        <ele>90</ele>
        <time>2022-07-11T19:05:10Z</time>
      </trkpt>
      <trkpt lat="46.71646" lon="0.47638">
        <ele>80</ele>
        <time>2022-07-11T19:06:11Z</time>
      </trkpt>
      <trkpt lat="46.71587" lon="0.47627">
        <ele>73</ele>
        <time>2022-07-11T19:06:58Z</time>
      </trkpt>
      <trkpt lat="46.71586" lon="0.47551">
        <ele>73</ele>
        <time>2022-07-11T19:07:40Z</time>
      </trkpt>
      <trkpt lat="46.71562" lon="0.4746">
        <ele>72</ele>
        <time>2022-07-11T19:08:33Z</time>
      </trkpt>
      <trkpt lat="46.71603" lon="0.47366">
        <ele>75</ele>
        <time>2022-07-11T19:09:35Z</time>
      </trkpt>
      <trkpt lat="46.71596" lon="0.4719">
        <ele>73</ele>
        <time>2022-07-11T19:11:11Z</time>
      </trkpt>
      <trkpt lat="46.70954" lon="0.46593">
        <ele>81</ele>
        <time>2022-07-11T19:21:21Z</time>
      </trkpt>
      <trkpt lat="46.7086" lon="0.46447">
        <ele>83</ele>
        <time>2022-07-11T19:23:11Z</time>
      </trkpt>
      <trkpt lat="46.70673" lon="0.46203">
        <ele>80</ele>
        <time>2022-07-11T19:26:32Z</time>
      </trkpt>
      <trkpt lat="46.70535" lon="0.46044">
        <ele>79.3</ele>
      </trkpt>
      <trkpt lat="46.7065" lon="0.45881">
        <ele>75.5</ele>
        <time>2022-07-11T19:30:32Z</time>
      </trkpt>
      <trkpt lat="46.71039" lon="0.45728">
        <ele>75</ele>
        <time>2022-07-11T19:35:06Z</time>
      </trkpt>
      <trkpt lat="46.71182" lon="0.45675">
        <ele>72</ele>
        <time>2022-07-11T19:37:04Z</time>
      </trkpt>
      <trkpt lat="46.71248" lon="0.45682">
        <ele>71</ele>
        <time>2022-07-11T19:37:57Z</time>
      </trkpt>
      <trkpt lat="46.71406" lon="0.45838">
        <ele>68.3</ele>
        <time>2022-07-11T16:54:28Z</time>
      </trkpt>
    </trkseg>
  </trk>
</gpx>